createdAt,value
2023-02-12T00:06:16.126Z,38.85
2023-02-12T00:09:02.351Z,39.74
2023-02-12T00:11:48.536Z,40.07
2023-02-12T00:14:34.696Z,41.33
2023-02-12T00:17:20.800Z,42.15
2023-02-12T00:20:07.026Z,41.03
2023-02-12T00:22:53.042Z,41.65
2023-02-12T00:25:39.252Z,41.75
2023-02-12T00:28:25.552Z,40.95
2023-02-12T00:31:11.679Z,43.06
2023-02-12T00:33:57.824Z,42.40
2023-02-12T00:36:43.632Z,41.78
2023-02-12T00:39:29.338Z,42.41
2023-02-12T00:42:15.570Z,42.25
2023-02-12T00:45:01.381Z,43.29
2023-02-12T00:47:47.409Z,44.04
2023-02-12T00:50:33.281Z,44.75
2023-02-12T00:53:19.289Z,45.98
2023-02-12T00:56:05.129Z,46.35
2023-02-12T00:58:50.898Z,48.99
2023-02-12T01:01:36.973Z,50.48
2023-02-12T01:04:23.270Z,50.08
2023-02-12T01:07:09.110Z,51.51
2023-02-12T01:09:54.973Z,52.23
2023-02-12T01:12:40.961Z,53.04
2023-02-12T01:15:26.668Z,52.25
2023-02-12T01:18:12.711Z,53.76
2023-02-12T01:20:58.496Z,52.54
2023-02-12T01:23:44.294Z,52.59
2023-02-12T01:26:30.221Z,53.75
2023-02-12T01:29:16.149Z,52.92
2023-02-12T01:32:02.408Z,51.34
2023-02-12T01:34:48.605Z,50.88
2023-02-12T01:37:34.552Z,51.99
2023-02-12T01:40:22.480Z,52.67
2023-02-12T01:43:08.368Z,52.37
2023-02-12T01:45:54.587Z,53.35
2023-02-12T01:48:40.619Z,51.30
2023-02-12T01:51:26.406Z,50.30
2023-02-12T01:54:14.309Z,52.13
2023-02-12T01:57:00.039Z,51.89
2023-02-12T01:59:45.852Z,49.95
2023-02-12T02:02:31.768Z,50.29
2023-02-12T02:05:17.685Z,50.71
2023-02-12T02:08:03.546Z,50.28
2023-02-12T02:10:49.442Z,53.02
2023-02-12T02:13:35.318Z,53.91
2023-02-12T02:16:21.263Z,55.17
2023-02-12T02:19:07.208Z,57.85
2023-02-12T02:21:53.029Z,56.41
2023-02-12T02:24:38.907Z,55.75
2023-02-12T02:27:24.853Z,56.62
2023-02-12T02:30:10.679Z,57.23
2023-02-12T02:32:56.551Z,57.94
2023-02-12T02:35:42.404Z,56.89
2023-02-12T02:38:28.233Z,57.76
2023-02-12T02:41:14.246Z,57.12
2023-02-12T02:44:00.044Z,52.94
2023-02-12T02:46:45.988Z,50.35
2023-02-12T02:49:31.884Z,48.31
2023-02-12T02:52:17.799Z,50.05
2023-02-12T02:55:03.694Z,51.24
2023-02-12T02:57:49.609Z,51.01
2023-02-12T03:00:35.572Z,50.98
2023-02-12T03:03:21.503Z,52.17
2023-02-12T03:06:07.322Z,52.36
2023-02-12T03:08:53.205Z,51.84
2023-02-12T03:11:39.011Z,52.50
2023-02-12T03:14:24.958Z,51.74
2023-02-12T03:17:10.991Z,52.26
2023-02-12T03:19:56.831Z,52.64
2023-02-12T03:22:42.902Z,53.28
2023-02-12T03:25:28.851Z,54.14
2023-02-12T03:28:14.697Z,55.89
2023-02-12T03:31:00.826Z,54.44
2023-02-12T03:33:46.708Z,55.93
2023-02-12T03:36:32.725Z,56.56
2023-02-12T03:39:18.589Z,56.70
2023-02-12T03:42:06.378Z,56.95
2023-02-12T03:44:52.123Z,56.21
2023-02-12T03:47:38.034Z,55.26
2023-02-12T03:50:23.946Z,53.20
2023-02-12T03:53:09.890Z,53.44
2023-02-12T03:55:55.904Z,55.06
2023-02-12T03:58:41.933Z,54.46
2023-02-12T04:01:27.710Z,52.35
2023-02-12T04:04:13.761Z,51.79
2023-02-12T04:06:59.850Z,52.21
2023-02-12T04:09:45.802Z,50.92
2023-02-12T04:12:31.546Z,51.15
2023-02-12T04:15:17.908Z,54.50
2023-02-12T04:18:03.765Z,50.95
2023-02-12T04:20:49.894Z,50.97
2023-02-12T04:23:35.732Z,49.23
2023-02-12T04:26:21.634Z,47.04
2023-02-12T04:29:07.367Z,46.29
2023-02-12T04:31:53.336Z,45.71
2023-02-12T04:34:39.159Z,44.79
2023-02-12T04:37:25.050Z,44.68
2023-02-12T04:40:10.838Z,46.40
2023-02-12T04:42:56.881Z,48.30
2023-02-12T04:45:42.927Z,49.60
2023-02-12T04:48:28.838Z,51.99
2023-02-12T04:51:14.797Z,51.85
2023-02-12T04:54:00.700Z,50.78
2023-02-12T04:56:46.605Z,50.98
2023-02-12T04:59:32.583Z,50.89
2023-02-12T05:02:18.494Z,51.11
2023-02-12T05:05:04.509Z,51.83
2023-02-12T05:07:50.536Z,52.77
2023-02-12T05:10:36.354Z,51.11
2023-02-12T05:13:22.170Z,50.76
2023-02-12T05:16:08.101Z,51.67
2023-02-12T05:18:54.184Z,51.96
2023-02-12T05:21:40.004Z,52.38
2023-02-12T05:24:25.823Z,52.29
2023-02-12T05:27:11.942Z,53.61
2023-02-12T05:29:59.885Z,54.40
2023-02-12T05:32:45.697Z,53.63
2023-02-12T05:35:31.594Z,52.50
2023-02-12T05:38:17.537Z,52.71
2023-02-12T05:41:03.388Z,51.62
2023-02-12T05:43:49.904Z,51.25
2023-02-12T05:46:36.170Z,50.12
2023-02-12T05:49:22.015Z,50.90
2023-02-12T05:52:07.920Z,50.96
2023-02-12T05:54:53.728Z,50.43
2023-02-12T05:57:39.678Z,49.80
2023-02-12T06:00:25.473Z,50.58
2023-02-12T06:03:11.406Z,50.56
2023-02-12T06:05:57.651Z,50.66
2023-02-12T06:08:43.644Z,51.00
2023-02-12T06:11:29.479Z,51.53
2023-02-12T06:14:15.531Z,52.75
2023-02-12T06:17:01.395Z,51.76
2023-02-12T06:19:47.442Z,53.03
2023-02-12T06:22:33.323Z,52.59
2023-02-12T06:25:19.325Z,51.55
2023-02-12T06:28:05.396Z,51.55
2023-02-12T06:30:51.461Z,52.62
2023-02-12T06:33:37.785Z,54.45
2023-02-12T06:36:23.716Z,52.54
2023-02-12T06:39:09.474Z,53.49
2023-02-12T06:41:55.491Z,53.07
2023-02-12T06:44:41.397Z,53.91
2023-02-12T06:47:27.332Z,53.46
2023-02-12T06:50:13.274Z,54.29
2023-02-12T06:52:59.153Z,51.98
2023-02-12T06:55:45.052Z,52.89
2023-02-12T06:58:31.013Z,51.98
2023-02-12T07:01:16.882Z,53.95
2023-02-12T07:04:03.083Z,56.03
2023-02-12T07:06:49.304Z,55.04
2023-02-12T07:09:35.210Z,54.91
2023-02-12T07:12:21.150Z,55.06
2023-02-12T07:15:07.099Z,54.59
2023-02-12T07:17:52.975Z,55.65
2023-02-12T07:20:38.897Z,55.41
2023-02-12T07:23:24.727Z,53.97
2023-02-12T07:26:10.694Z,55.89
2023-02-12T07:28:56.638Z,54.67
2023-02-12T07:31:42.572Z,54.91
2023-02-12T07:34:30.598Z,55.55
2023-02-12T07:37:16.376Z,56.88
2023-02-12T07:40:02.270Z,53.83
2023-02-12T07:42:48.242Z,52.78
2023-02-12T07:45:34.003Z,53.46
2023-02-12T07:48:19.936Z,54.40
2023-02-12T07:51:05.911Z,53.47
2023-02-12T07:53:51.607Z,55.36
2023-02-12T07:56:37.553Z,54.63
2023-02-12T07:59:23.362Z,55.85
2023-02-12T08:02:09.395Z,55.24
2023-02-12T08:04:56.925Z,54.29
2023-02-12T08:07:43.095Z,52.90
2023-02-12T08:10:31.402Z,50.89
2023-02-12T08:13:18.275Z,51.45
2023-02-12T08:16:04.152Z,52.24
2023-02-12T08:18:50.156Z,51.75
2023-02-12T08:21:36.057Z,52.69
2023-02-12T08:24:21.911Z,53.00
2023-02-12T08:27:07.847Z,52.27
2023-02-12T08:29:53.633Z,52.60
2023-02-12T08:32:39.331Z,53.67
2023-02-12T08:35:25.276Z,54.64
2023-02-12T08:38:11.113Z,52.07
2023-02-12T08:40:56.953Z,54.07
2023-02-12T08:43:42.879Z,53.48
2023-02-12T08:46:28.799Z,52.45
2023-02-12T08:49:14.703Z,53.83
2023-02-12T08:52:00.564Z,50.94
2023-02-12T08:54:46.516Z,52.25
2023-02-12T08:57:32.498Z,52.15
2023-02-12T09:00:18.261Z,54.04
2023-02-12T09:03:04.158Z,53.25
2023-02-12T09:05:50.103Z,52.94
2023-02-12T09:08:35.884Z,50.14
2023-02-12T09:11:21.765Z,51.95
2023-02-12T09:14:07.526Z,53.55
2023-02-12T09:16:53.570Z,51.43
2023-02-12T09:19:39.711Z,51.50
2023-02-12T09:22:25.625Z,52.01
2023-02-12T09:25:11.590Z,51.33
2023-02-12T09:27:57.656Z,52.29
2023-02-12T09:30:43.533Z,52.73
2023-02-12T09:33:29.547Z,53.56
2023-02-12T09:36:15.447Z,51.57
2023-02-12T09:39:01.355Z,52.07
2023-02-12T09:41:47.194Z,52.83
2023-02-12T09:44:32.914Z,53.35
2023-02-12T09:47:18.805Z,51.86
2023-02-12T09:50:04.558Z,51.33
2023-02-12T09:52:50.535Z,50.75
2023-02-12T09:55:36.451Z,50.31
2023-02-12T09:58:22.363Z,46.97
2023-02-12T10:01:08.348Z,48.20
2023-02-12T10:03:54.313Z,48.35
2023-02-12T10:06:40.249Z,51.62
2023-02-12T10:09:26.066Z,49.54
2023-02-12T10:12:11.821Z,47.79
2023-02-12T10:14:57.677Z,47.36
2023-02-12T10:17:43.553Z,50.14
2023-02-12T10:20:29.478Z,50.76
2023-02-12T10:23:15.442Z,49.15
2023-02-12T10:26:01.416Z,47.75
2023-02-12T10:28:47.254Z,46.98
2023-02-12T10:31:33.238Z,48.45
2023-02-12T10:34:19.345Z,47.80
2023-02-12T10:37:05.236Z,46.76
2023-02-12T10:39:51.200Z,45.66
2023-02-12T10:42:36.989Z,46.15
2023-02-12T10:45:22.794Z,44.42
2023-02-12T10:48:08.633Z,43.89
2023-02-12T10:50:54.471Z,42.10
2023-02-12T10:53:40.553Z,46.57
2023-02-12T10:56:26.348Z,45.24
2023-02-12T10:59:12.047Z,45.91
2023-02-12T11:01:58.014Z,46.42
2023-02-12T11:04:43.820Z,47.41
2023-02-12T11:07:29.712Z,48.00
2023-02-12T11:10:15.665Z,48.33
2023-02-12T11:13:01.577Z,45.77
2023-02-12T11:15:47.578Z,45.40
2023-02-12T11:18:33.500Z,44.02
2023-02-12T11:21:19.417Z,41.79
2023-02-12T11:24:05.370Z,44.17
2023-02-12T11:26:51.311Z,44.17
2023-02-12T11:29:37.166Z,42.19
2023-02-12T11:32:23.007Z,39.53
2023-02-12T11:35:08.898Z,41.88
2023-02-12T11:37:54.745Z,40.81
2023-02-12T11:40:40.492Z,37.88
2023-02-12T11:43:26.520Z,34.68
2023-02-12T11:46:12.353Z,35.14
2023-02-12T11:48:58.255Z,36.37
2023-02-12T11:51:44.122Z,38.58
2023-02-12T11:54:29.857Z,40.21
2023-02-12T11:57:15.673Z,41.79
2023-02-12T12:00:01.800Z,40.73
2023-02-12T12:02:47.742Z,41.65
2023-02-12T12:05:33.734Z,40.30
2023-02-12T12:08:19.545Z,42.32
2023-02-12T12:11:05.381Z,41.22
2023-02-12T12:13:51.348Z,42.09
2023-02-12T12:16:37.160Z,40.99
2023-02-12T12:19:23.143Z,41.20
2023-02-12T12:22:09.076Z,41.41
2023-02-12T12:24:55.571Z,40.81
2023-02-12T12:27:41.500Z,38.68
2023-02-12T12:30:27.300Z,40.03
2023-02-12T12:33:13.284Z,37.64
2023-02-12T12:35:59.328Z,38.38
2023-02-12T12:38:45.148Z,35.17
2023-02-12T12:41:30.977Z,40.13
2023-02-12T12:44:16.938Z,43.97
2023-02-12T12:47:03.065Z,43.13
2023-02-12T12:49:49.017Z,43.63
2023-02-12T12:52:34.861Z,43.29
2023-02-12T12:55:20.741Z,41.72
2023-02-12T12:58:07.331Z,41.68
2023-02-12T13:00:53.106Z,40.40
2023-02-12T13:03:39.089Z,41.31
2023-02-12T13:06:25.026Z,41.38
2023-02-12T13:09:10.937Z,41.21
2023-02-12T13:11:56.952Z,40.18
2023-02-12T13:14:43.089Z,39.52
2023-02-12T13:17:28.933Z,39.25
2023-02-12T13:20:14.831Z,37.86
2023-02-12T13:23:00.632Z,36.44
2023-02-12T13:25:46.515Z,36.98
2023-02-12T13:28:32.366Z,36.76
2023-02-12T13:31:32.418Z,35.48
2023-02-12T13:34:19.134Z,36.19
2023-02-12T13:37:04.929Z,35.84
2023-02-12T13:39:50.876Z,35.37
2023-02-12T13:42:36.907Z,35.09
2023-02-12T13:45:22.730Z,34.89
2023-02-12T13:48:08.657Z,33.75
2023-02-12T13:50:58.957Z,31.80
2023-02-12T13:53:46.093Z,31.43
2023-02-12T13:56:31.995Z,30.47
2023-02-12T13:59:17.978Z,30.97
2023-02-12T14:02:03.896Z,34.04
2023-02-12T14:04:49.924Z,33.97
2023-02-12T14:07:35.602Z,33.89
2023-02-12T14:10:21.355Z,34.00
2023-02-12T14:13:07.261Z,35.84
2023-02-12T14:15:53.184Z,33.59
2023-02-12T14:18:38.997Z,33.08
2023-02-12T14:21:24.825Z,34.21
2023-02-12T14:24:10.618Z,34.34
2023-02-12T14:26:56.560Z,34.01
2023-02-12T14:29:42.398Z,32.88
2023-02-12T14:32:28.203Z,31.16
2023-02-12T14:35:14.069Z,32.44
2023-02-12T14:38:00.097Z,32.80
2023-02-12T14:40:45.985Z,33.05
2023-02-12T14:43:31.677Z,32.58
2023-02-12T14:46:17.596Z,33.08
2023-02-12T14:49:03.456Z,33.01
2023-02-12T14:51:49.178Z,30.85
2023-02-12T14:54:35.150Z,30.67
2023-02-12T14:57:20.966Z,30.83
2023-02-12T15:00:06.941Z,29.43
2023-02-12T15:02:52.919Z,29.12
2023-02-12T15:05:38.811Z,29.74
2023-02-12T15:08:24.925Z,32.65
2023-02-12T15:11:10.954Z,31.09
2023-02-12T15:13:56.729Z,31.12
2023-02-12T15:16:42.629Z,32.45
2023-02-12T15:19:28.511Z,32.35
2023-02-12T15:22:14.221Z,32.71
2023-02-12T15:25:00.147Z,31.58
2023-02-12T15:27:45.960Z,32.01
2023-02-12T15:30:31.787Z,32.95
2023-02-12T15:33:17.750Z,32.88
2023-02-12T15:36:03.630Z,33.37
2023-02-12T15:38:49.525Z,33.83
2023-02-12T15:41:35.359Z,35.24
2023-02-12T15:44:21.490Z,35.40
2023-02-12T15:47:07.515Z,35.20
2023-02-12T15:49:53.353Z,37.32
2023-02-12T15:52:39.183Z,36.59
2023-02-12T15:55:25.012Z,38.32
2023-02-12T15:58:10.965Z,38.77
2023-02-12T16:00:56.831Z,39.21
2023-02-12T16:03:42.589Z,39.56
2023-02-12T16:06:28.567Z,40.73
2023-02-12T16:09:14.553Z,40.67
2023-02-12T16:12:00.311Z,41.00
2023-02-12T16:14:46.294Z,40.56
2023-02-12T16:17:31.981Z,40.18
2023-02-12T16:20:17.867Z,39.73
2023-02-12T16:23:04.726Z,40.28
2023-02-12T16:25:50.512Z,40.22
2023-02-12T16:28:36.533Z,39.82
2023-02-12T16:31:22.700Z,39.09
2023-02-12T16:34:08.922Z,38.90
2023-02-12T16:36:54.879Z,39.56
2023-02-12T16:39:40.816Z,40.55
2023-02-12T16:42:26.668Z,40.11
2023-02-12T16:45:12.530Z,40.08
2023-02-12T16:47:58.480Z,40.30
2023-02-12T16:50:44.455Z,39.89
2023-02-12T16:53:30.414Z,39.36
2023-02-12T16:56:16.283Z,41.06
2023-02-12T16:59:02.126Z,40.50
2023-02-12T17:01:48.029Z,40.73
2023-02-12T17:04:33.827Z,41.30
2023-02-12T17:07:19.757Z,41.37
2023-02-12T17:10:05.584Z,41.37
2023-02-12T17:12:51.561Z,41.31
2023-02-12T17:15:37.490Z,43.31
2023-02-12T17:18:23.503Z,43.88
2023-02-12T17:21:09.399Z,44.45
2023-02-12T17:23:55.200Z,43.65
2023-02-12T17:26:41.186Z,44.88
2023-02-12T17:29:27.068Z,43.92
2023-02-12T17:32:13.028Z,44.20
2023-02-12T17:34:58.957Z,45.73
2023-02-12T17:37:44.985Z,45.42
2023-02-12T17:40:30.817Z,44.57
2023-02-12T17:43:16.804Z,45.67
2023-02-12T17:46:02.619Z,45.94
2023-02-12T17:48:48.737Z,45.59
2023-02-12T17:51:35.081Z,45.95
2023-02-12T17:54:20.803Z,44.94
2023-02-12T17:57:06.797Z,45.39
2023-02-12T17:59:52.702Z,45.87
2023-02-12T18:02:38.598Z,45.43
2023-02-12T18:05:24.457Z,46.03
2023-02-12T18:08:10.389Z,46.25
2023-02-12T18:10:56.566Z,44.71
2023-02-12T18:13:42.797Z,45.72
2023-02-12T18:16:28.716Z,45.01
2023-02-12T18:19:14.751Z,44.85
2023-02-12T18:22:00.708Z,44.73
2023-02-12T18:24:46.620Z,45.02
2023-02-12T18:27:32.501Z,44.62
2023-02-12T18:30:18.337Z,46.36
2023-02-12T18:33:04.304Z,46.21
2023-02-12T18:35:51.243Z,45.84
2023-02-12T18:38:37.024Z,44.90
2023-02-12T18:41:23.103Z,45.32
2023-02-12T18:44:08.950Z,43.00
2023-02-12T18:46:54.867Z,41.67
2023-02-12T18:49:40.695Z,41.44
2023-02-12T18:52:26.590Z,39.79
2023-02-12T18:55:12.537Z,39.50
2023-02-12T18:57:58.470Z,39.03
2023-02-12T19:00:44.324Z,40.37
2023-02-12T19:03:30.182Z,41.32
2023-02-12T19:06:16.006Z,40.50
2023-02-12T19:09:01.949Z,41.02
2023-02-12T19:11:47.910Z,40.61
2023-02-12T19:14:34.180Z,39.52
2023-02-12T19:17:20.098Z,40.75
2023-02-12T19:20:05.978Z,40.28
2023-02-12T19:22:51.706Z,40.16
2023-02-12T19:25:37.605Z,41.41
2023-02-12T19:28:23.425Z,41.18
2023-02-12T19:31:09.453Z,39.36
2023-02-12T19:33:55.452Z,40.30
2023-02-12T19:36:41.187Z,39.04
2023-02-12T19:39:27.092Z,39.21
2023-02-12T19:42:12.905Z,39.33
2023-02-12T19:44:58.823Z,39.23
2023-02-12T19:47:44.871Z,37.04
2023-02-12T19:50:30.877Z,37.34
2023-02-12T19:53:16.847Z,37.23
2023-02-12T19:56:02.636Z,36.99
2023-02-12T19:58:48.510Z,38.38
2023-02-12T20:01:34.359Z,38.08
2023-02-12T20:04:20.218Z,36.40
2023-02-12T20:07:06.009Z,37.13
2023-02-12T20:09:51.970Z,36.98
2023-02-12T20:12:37.838Z,35.54
2023-02-12T20:15:23.783Z,35.32
2023-02-12T20:18:09.598Z,35.47
2023-02-12T20:20:55.761Z,35.18
2023-02-12T20:23:41.713Z,35.38
2023-02-12T20:26:27.515Z,33.78
2023-02-12T20:29:13.441Z,33.36
2023-02-12T20:31:59.560Z,32.55
2023-02-12T20:34:50.947Z,32.81
2023-02-12T20:37:37.143Z,33.85
2023-02-12T20:40:22.938Z,34.75
2023-02-12T20:43:08.816Z,33.86
2023-02-12T20:45:54.712Z,33.87
2023-02-12T20:48:40.576Z,34.74
2023-02-12T20:51:26.613Z,34.24
2023-02-12T20:54:12.605Z,33.58
2023-02-12T20:56:58.442Z,33.14
2023-02-12T20:59:44.314Z,35.53
2023-02-12T21:02:30.458Z,34.52
2023-02-12T21:05:16.373Z,34.65
2023-02-12T21:08:02.289Z,33.53
2023-02-12T21:10:48.354Z,33.22
2023-02-12T21:13:34.177Z,31.73
2023-02-12T21:16:20.069Z,31.80
2023-02-12T21:19:05.964Z,32.34
2023-02-12T21:21:51.795Z,33.91
2023-02-12T21:24:37.739Z,34.60
2023-02-12T21:27:23.478Z,35.21
2023-02-12T21:30:09.207Z,35.86
2023-02-12T21:32:55.169Z,36.13
2023-02-12T21:35:40.970Z,36.30
2023-02-12T21:38:26.976Z,35.48
2023-02-12T21:41:12.745Z,35.60
2023-02-12T21:43:58.677Z,35.08
2023-02-12T21:46:44.577Z,35.78
2023-02-12T21:49:30.676Z,35.37
2023-02-12T21:52:16.637Z,34.88
2023-02-12T21:55:02.500Z,35.48
2023-02-12T21:57:50.291Z,35.95
2023-02-12T22:00:36.181Z,34.07
2023-02-12T22:03:22.040Z,34.79
2023-02-12T22:06:08.024Z,35.01
2023-02-12T22:08:53.945Z,36.63
2023-02-12T22:11:39.827Z,39.83
2023-02-12T22:14:25.938Z,39.37
2023-02-12T22:17:11.966Z,40.40
2023-02-12T22:19:57.764Z,39.31
2023-02-12T22:22:45.695Z,39.52
2023-02-12T22:25:31.714Z,40.32
2023-02-12T22:28:17.660Z,42.42
2023-02-12T22:31:03.633Z,42.39
2023-02-12T22:33:49.575Z,42.24
2023-02-12T22:36:35.492Z,45.09
2023-02-12T22:39:21.318Z,45.61
2023-02-12T22:42:07.169Z,45.74
2023-02-12T22:44:53.055Z,45.58
2023-02-12T22:47:39.070Z,44.88
2023-02-12T22:50:24.915Z,46.19
2023-02-12T22:53:10.785Z,45.17
2023-02-12T22:55:56.674Z,45.30
2023-02-12T22:58:42.720Z,44.86
2023-02-12T23:01:28.738Z,46.20
2023-02-12T23:04:14.719Z,44.75
2023-02-12T23:07:00.591Z,43.85
2023-02-12T23:09:46.656Z,46.70
2023-02-12T23:12:32.462Z,48.14
2023-02-12T23:15:18.443Z,48.83
2023-02-12T23:18:04.239Z,46.46
2023-02-12T23:20:50.064Z,44.87
2023-02-12T23:23:35.901Z,45.09
2023-02-12T23:26:21.727Z,45.63
2023-02-12T23:29:07.592Z,45.64
2023-02-12T23:31:53.499Z,46.00
2023-02-12T23:34:39.382Z,49.16
2023-02-12T23:37:25.223Z,48.08
2023-02-12T23:40:10.956Z,46.98
2023-02-12T23:42:56.954Z,48.17
2023-02-12T23:45:42.862Z,49.94
2023-02-12T23:48:28.716Z,46.11
2023-02-12T23:51:14.667Z,46.96
2023-02-12T23:54:00.433Z,46.92
2023-02-12T23:56:47.375Z,49.86
2023-02-12T23:59:33.339Z,49.68
